createdAt,value
2019-06-08T00:01:20.585Z,98433.50
2019-06-08T00:03:52.761Z,98435.09
2019-06-08T00:06:24.109Z,98439.05
2019-06-08T00:08:55.756Z,98435.34
2019-06-08T00:11:27.411Z,98441.55
2019-06-08T00:13:59.014Z,98440.50
2019-06-08T00:16:30.758Z,98447.53
2019-06-08T00:19:02.296Z,98447.53
2019-06-08T00:21:36.164Z,98452.60
2019-06-08T00:24:08.083Z,98452.19
2019-06-08T00:26:39.387Z,98462.95
2019-06-08T00:29:11.513Z,98459.84
2019-06-08T00:31:43.537Z,98456.81
2019-06-08T00:34:10.708Z,98453.73
2019-06-08T00:36:42.358Z,98458.92
2019-06-08T00:39:14.682Z,98458.92
2019-06-08T00:41:46.218Z,98465.22
2019-06-08T00:44:19.171Z,98466.45
2019-06-08T00:46:50.595Z,98467.33
2019-06-08T00:49:22.688Z,98471.30
2019-06-08T00:51:54.321Z,98481.24
2019-06-08T00:54:25.996Z,98479.89
2019-06-08T00:56:57.421Z,98479.89
2019-06-08T00:59:30.343Z,98476.63
2019-06-08T01:02:02.175Z,98484.55
2019-06-08T01:04:34.087Z,98484.55
2019-06-08T01:07:05.742Z,98491.69
2019-06-08T01:09:37.835Z,98491.14
2019-06-08T01:12:09.478Z,98491.14
2019-06-08T01:14:40.911Z,98494.23
2019-06-08T01:17:13.583Z,98494.23
2019-06-08T01:19:45.321Z,98497.14
2019-06-08T01:22:16.932Z,98496.54
2019-06-08T01:24:48.899Z,98496.30
2019-06-08T01:27:20.313Z,98498.09
2019-06-08T01:29:52.050Z,98504.90
2019-06-08T01:32:24.286Z,98506.84
2019-06-08T01:34:56.131Z,98501.59
2019-06-08T01:37:27.419Z,98501.59
2019-06-08T01:39:59.346Z,98500.45
2019-06-08T01:42:31.849Z,98498.92
2019-06-08T01:45:03.775Z,98506.80
2019-06-08T01:47:35.475Z,98506.80
2019-06-08T01:50:07.418Z,98499.44
2019-06-08T01:52:39.150Z,98502.48
2019-06-08T01:55:10.938Z,98499.30
2019-06-08T01:57:42.462Z,98501.06
2019-06-08T02:00:32.481Z,98500.55
2019-06-08T02:02:47.489Z,98502.59
2019-06-08T02:05:19.424Z,98504.37
2019-06-08T02:07:51.013Z,98509.07
2019-06-08T02:10:22.988Z,98502.29
2019-06-08T02:12:54.622Z,98508.44
2019-06-08T02:15:27.192Z,98508.44
2019-06-08T02:17:58.625Z,98509.31
2019-06-08T02:20:30.801Z,98503.41
2019-06-08T02:23:02.379Z,98501.38
2019-06-08T02:25:35.534Z,98507.98
2019-06-08T02:28:07.430Z,98501.17
2019-06-08T02:30:41.711Z,98500.78
2019-06-08T02:33:13.203Z,98500.78
2019-06-08T02:35:44.805Z,98498.42
2019-06-08T02:38:16.665Z,98498.42
2019-06-08T02:40:48.872Z,98495.14
2019-06-08T02:43:20.495Z,98491.11
2019-06-08T02:45:52.153Z,98491.11
2019-06-08T02:48:23.806Z,98490.88
2019-06-08T02:50:56.381Z,98489.69
2019-06-08T02:53:29.622Z,98493.56
2019-06-08T02:56:02.951Z,98494.75
2019-06-08T02:58:36.895Z,98494.75
2019-06-08T03:01:10.160Z,98497.90
2019-06-08T03:03:42.808Z,98487.58
2019-06-08T03:06:16.155Z,98487.58
2019-06-08T03:08:50.157Z,98484.77
2019-06-08T03:11:23.233Z,98480.20
2019-06-08T03:13:58.752Z,98489.22
2019-06-08T03:16:31.275Z,98478.08
2019-06-08T03:19:20.110Z,98473.94
2019-06-08T03:21:38.810Z,98473.94
2019-06-08T03:24:10.632Z,98469.93
2019-06-08T03:26:44.174Z,98465.64
2019-06-08T03:29:15.844Z,98466.63
2019-06-08T03:31:55.162Z,98463.16
2019-06-08T03:34:20.710Z,98464.22
2019-06-08T03:36:56.821Z,98468.55
2019-06-08T03:39:25.338Z,98465.71
2019-06-08T03:41:56.833Z,98465.71
2019-06-08T03:44:30.109Z,98466.66
2019-06-08T03:47:01.630Z,98464.38
2019-06-08T03:49:42.698Z,98459.35
2019-06-08T03:52:06.417Z,98455.16
2019-06-08T03:54:40.554Z,98453.41
2019-06-08T03:57:12.048Z,98450.02
2019-06-08T03:59:45.610Z,98447.83
2019-06-08T04:02:17.232Z,98442.78
2019-06-08T04:04:49.962Z,98442.78
2019-06-08T04:07:21.665Z,98450.53
2019-06-08T04:09:53.364Z,98445.60
2019-06-08T04:12:25.154Z,98451.70
2019-06-08T04:14:56.844Z,98446.36
2019-06-08T04:17:28.384Z,98440.97
2019-06-08T04:20:10.089Z,98440.97
2019-06-08T04:22:37.936Z,98447.07
2019-06-08T04:25:09.547Z,98446.29
2019-06-08T04:27:42.240Z,98449.17
2019-06-08T04:30:14.740Z,98445.33
2019-06-08T04:32:47.477Z,98442.61
2019-06-08T04:35:19.858Z,98445.97
2019-06-08T04:37:51.633Z,98446.13
2019-06-08T04:40:23.289Z,98447.89
2019-06-08T04:42:55.198Z,98447.89
2019-06-08T04:45:26.854Z,98442.45
2019-06-08T04:47:58.437Z,98437.91
2019-06-08T04:50:30.054Z,98443.53
2019-06-08T04:53:01.731Z,98435.13
2019-06-08T04:55:33.192Z,98436.88
2019-06-08T04:58:04.838Z,98432.64
2019-06-08T05:00:36.630Z,98432.64
2019-06-08T05:03:08.106Z,98430.73
2019-06-08T05:05:41.087Z,98432.91
2019-06-08T05:08:12.780Z,98420.27
2019-06-08T05:10:45.247Z,98422.08
2019-06-08T05:13:17.187Z,98422.08
2019-06-08T05:15:50.235Z,98433.35
2019-06-08T05:18:25.235Z,98431.80
2019-06-08T05:20:54.959Z,98431.54
2019-06-08T05:23:26.360Z,98441.23
2019-06-08T05:25:57.685Z,98435.91
2019-06-08T05:28:29.244Z,98438.23
2019-06-08T05:31:00.879Z,98436.94
2019-06-08T05:33:34.039Z,98432.35
2019-06-08T05:36:05.855Z,98432.59
2019-06-08T05:38:37.462Z,98435.30
2019-06-08T05:41:08.845Z,98427.18
2019-06-08T05:43:41.521Z,98431.83
2019-06-08T05:46:12.859Z,98431.83
2019-06-08T05:48:44.307Z,98425.56
2019-06-08T05:51:15.712Z,98423.65
2019-06-08T05:53:47.886Z,98421.48
2019-06-08T05:56:19.562Z,98417.78
2019-06-08T05:58:51.892Z,98417.78
2019-06-08T06:01:23.361Z,98414.34
2019-06-08T06:03:55.016Z,98412.41
2019-06-08T06:06:26.439Z,98412.02
2019-06-08T06:08:57.981Z,98399.14
2019-06-08T06:11:29.505Z,98398.62
2019-06-08T06:14:01.028Z,98398.62
2019-06-08T06:16:32.743Z,98395.75
2019-06-08T06:19:04.323Z,98395.22
2019-06-08T06:21:35.931Z,98390.29
2019-06-08T06:24:07.566Z,98383.13
2019-06-08T06:26:39.673Z,98383.13
2019-06-08T06:29:11.532Z,98380.35
2019-06-08T06:31:45.754Z,98375.73
2019-06-08T06:34:17.739Z,98372.30
2019-06-08T06:36:49.858Z,98371.09
2019-06-08T06:39:21.606Z,98358.08
2019-06-08T06:41:53.550Z,98359.69
2019-06-08T06:44:25.255Z,98356.48
2019-06-08T06:50:00.403Z,98342.38
2019-06-08T06:52:32.087Z,98342.38
2019-06-08T06:55:04.829Z,98337.49
2019-06-08T06:57:36.922Z,98334.66
2019-06-08T07:00:11.338Z,98334.66
2019-06-08T07:02:43.573Z,98324.59
2019-06-08T07:05:15.354Z,98324.69
2019-06-08T07:07:47.954Z,98316.95
2019-06-08T07:10:19.839Z,98317.64
2019-06-08T07:12:52.754Z,98311.06
2019-06-08T07:15:31.278Z,98299.07
2019-06-08T07:18:03.147Z,98299.07
2019-06-08T07:20:34.765Z,98287.22
2019-06-08T07:23:06.834Z,98287.22
2019-06-08T07:25:39.332Z,98285.18
2019-06-08T07:28:11.518Z,98280.31
2019-06-08T07:30:43.507Z,98272.23
2019-06-08T07:33:15.400Z,98272.28
2019-06-08T07:35:48.728Z,98272.28
2019-06-08T07:38:20.845Z,98270.88
2019-06-08T07:40:52.413Z,98270.88
2019-06-08T07:43:25.024Z,98273.19
2019-06-08T07:45:56.763Z,98272.67
2019-06-08T07:48:28.618Z,98269.63
2019-06-08T07:51:00.162Z,98266.67
2019-06-08T07:53:31.713Z,98265.64
2019-06-08T07:56:03.973Z,98262.19
2019-06-08T07:58:35.947Z,98253.33
2019-06-08T08:01:08.311Z,98242.00
2019-06-08T08:03:39.817Z,98242.00
2019-06-08T08:06:11.926Z,98237.27
2019-06-08T08:08:44.020Z,98232.05
2019-06-08T08:11:15.944Z,98225.83
2019-06-08T08:13:50.116Z,98231.22
2019-06-08T08:16:21.415Z,98225.05
2019-06-08T08:18:55.569Z,98223.23
2019-06-08T08:21:29.526Z,98220.67
2019-06-08T08:24:02.127Z,98214.41
2019-06-08T08:26:34.711Z,98211.11
2019-06-08T08:29:08.488Z,98206.58
2019-06-08T08:31:40.192Z,98201.14
2019-06-08T08:34:12.160Z,98190.17
2019-06-08T08:36:44.554Z,98189.38
2019-06-08T08:39:17.664Z,98184.80
2019-06-08T08:42:10.052Z,98180.06
2019-06-08T08:44:42.509Z,98178.05
2019-06-08T08:47:14.810Z,98170.87
2019-06-08T08:49:47.953Z,98172.66
2019-06-08T08:52:33.641Z,98164.20
2019-06-08T08:54:54.302Z,98161.06
2019-06-08T08:57:26.219Z,98127.94
2019-06-08T09:00:02.800Z,98127.94
2019-06-08T09:02:31.870Z,98145.38
2019-06-08T09:05:04.084Z,98145.38
2019-06-08T09:07:38.248Z,98146.16
2019-06-08T09:10:11.325Z,98136.48
2019-06-08T09:12:43.783Z,98132.11
2019-06-08T09:15:19.021Z,98125.30
2019-06-08T09:17:52.115Z,98126.78
2019-06-08T09:20:24.019Z,98124.86
2019-06-08T09:23:03.943Z,98117.52
2019-06-08T09:25:30.184Z,98122.66
2019-06-08T09:28:04.650Z,98116.41
2019-06-08T09:30:38.308Z,98111.95
2019-06-08T09:33:10.137Z,98115.34
2019-06-08T09:35:42.261Z,98110.71
2019-06-08T09:38:14.573Z,98112.78
2019-06-08T09:40:48.750Z,98110.71
2019-06-08T09:43:20.473Z,98103.44
2019-06-08T09:45:55.063Z,98111.41
2019-06-08T09:48:28.851Z,98103.03
2019-06-08T09:51:03.965Z,98103.03
2019-06-08T09:53:38.858Z,98102.78
2019-06-08T09:56:10.133Z,98104.13
2019-06-08T09:58:42.925Z,98107.03
2019-06-08T10:01:18.249Z,98089.54
2019-06-08T10:03:49.727Z,98085.11
2019-06-08T10:06:22.355Z,98085.11
2019-06-08T10:08:56.235Z,98082.00
2019-06-08T10:11:29.194Z,98082.00
2019-06-08T10:14:04.755Z,98074.49
2019-06-08T10:16:37.999Z,98071.33
2019-06-08T10:19:10.288Z,98071.33
2019-06-08T10:21:43.528Z,98080.56
2019-06-08T10:24:15.891Z,98065.34
2019-06-08T10:26:48.350Z,98065.34
2019-06-08T10:29:20.981Z,98062.41
2019-06-08T10:31:52.813Z,98059.31
2019-06-08T10:34:24.349Z,98055.90
2019-06-08T10:36:58.884Z,98049.02
2019-06-08T10:39:29.686Z,98052.33
2019-06-08T10:42:03.589Z,98053.61
2019-06-08T10:44:38.035Z,98043.24
2019-06-08T10:47:11.576Z,98043.24
2019-06-08T10:49:42.614Z,98045.31
2019-06-08T10:52:14.606Z,98037.09
2019-06-08T10:54:46.743Z,98033.65
2019-06-08T10:57:18.414Z,98021.75
2019-06-08T10:59:50.250Z,98021.75
2019-06-08T11:02:21.863Z,98015.46
2019-06-08T11:04:53.596Z,98015.46
2019-06-08T11:07:25.200Z,98016.10
2019-06-08T11:09:58.639Z,98016.20
2019-06-08T11:12:29.742Z,98008.35
2019-06-08T11:15:01.984Z,97997.55
2019-06-08T11:17:34.770Z,97997.55
2019-06-08T11:20:11.158Z,97993.38
2019-06-08T11:22:39.805Z,97996.17
2019-06-08T11:25:16.153Z,97981.59
2019-06-08T11:27:47.378Z,97981.20
2019-06-08T11:30:23.448Z,97981.20
2019-06-08T11:32:51.792Z,97981.97
2019-06-08T11:35:23.338Z,97980.03
2019-06-08T11:37:55.082Z,97980.17
2019-06-08T11:40:27.842Z,97971.58
2019-06-08T11:43:00.476Z,97971.23
2019-06-08T11:45:32.137Z,97967.44
2019-06-08T11:48:04.734Z,97966.29
2019-06-08T11:50:41.975Z,97969.76
2019-06-08T11:53:14.687Z,97962.47
2019-06-08T11:55:50.775Z,97963.58
2019-06-08T11:58:23.017Z,97960.39
2019-06-08T12:01:11.077Z,97960.30
2019-06-08T12:03:40.102Z,97960.27
2019-06-08T12:06:14.132Z,97959.58
2019-06-08T12:08:47.211Z,97957.17
2019-06-08T12:11:20.916Z,97962.14
2019-06-08T12:13:51.799Z,97961.09
2019-06-08T12:16:23.360Z,97956.14
2019-06-08T12:18:54.921Z,97946.03
2019-06-08T12:21:27.393Z,97948.13
2019-06-08T12:23:59.237Z,97947.05
2019-06-08T12:26:31.437Z,97941.84
2019-06-08T12:29:03.181Z,97941.84
2019-06-08T12:31:34.479Z,97943.24
2019-06-08T12:34:07.081Z,97942.00
2019-06-08T12:36:38.764Z,97941.30
2019-06-08T12:39:10.371Z,97941.30
2019-06-08T12:41:41.880Z,97940.12
2019-06-08T12:44:15.198Z,97939.00
2019-06-08T12:46:48.485Z,97944.63
2019-06-08T12:49:20.540Z,97935.94
2019-06-08T12:51:52.197Z,97935.94
2019-06-08T12:54:23.843Z,97941.15
2019-06-08T12:56:57.966Z,97940.79
2019-06-08T12:59:28.909Z,97940.79
2019-06-08T13:02:00.663Z,97940.73
2019-06-08T13:04:32.047Z,97938.34
2019-06-08T13:07:03.779Z,97942.89
2019-06-08T13:09:37.959Z,97942.89
2019-06-08T13:12:09.717Z,97944.96
2019-06-08T13:14:42.080Z,97946.88
2019-06-08T13:17:14.601Z,97943.04
2019-06-08T13:19:48.108Z,97944.53
2019-06-08T13:22:23.078Z,97949.80
2019-06-08T13:24:52.461Z,97951.36
2019-06-08T13:27:25.265Z,97951.14
2019-06-08T13:29:57.759Z,97951.14
2019-06-08T13:32:29.508Z,97944.72
2019-06-08T13:35:00.960Z,97958.38
2019-06-08T13:37:32.334Z,97958.38
2019-06-08T13:40:03.970Z,97960.63
2019-06-08T13:42:35.254Z,97962.38
2019-06-08T13:45:07.812Z,97960.68
2019-06-08T13:47:41.385Z,97969.89
2019-06-08T13:50:14.809Z,97969.89
2019-06-08T13:52:48.339Z,97969.41
2019-06-08T13:55:36.556Z,97970.72
2019-06-08T13:57:53.385Z,97975.39
2019-06-08T14:00:38.465Z,97975.39
2019-06-08T14:03:10.802Z,97975.88
2019-06-08T14:05:42.379Z,97979.94
2019-06-08T14:08:14.637Z,97978.19
2019-06-08T14:10:48.139Z,97980.08
2019-06-08T14:13:26.454Z,97982.66
2019-06-08T14:15:52.856Z,97988.47
2019-06-08T14:18:29.993Z,97980.64
2019-06-08T14:20:59.191Z,97986.42
2019-06-08T14:23:30.774Z,97989.80
2019-06-08T14:26:02.541Z,97986.23
2019-06-08T14:28:34.090Z,97988.30
2019-06-08T14:31:08.286Z,97988.42
2019-06-08T14:33:39.854Z,97998.52
2019-06-08T14:36:11.204Z,97998.52
2019-06-08T14:38:42.688Z,98003.99
2019-06-08T14:41:14.314Z,98000.62
2019-06-08T14:43:48.260Z,98004.42
2019-06-08T14:46:21.126Z,98004.42
2019-06-08T14:48:53.140Z,98016.72
2019-06-08T14:51:28.814Z,98015.58
2019-06-08T14:54:00.833Z,98012.63
2019-06-08T14:56:32.544Z,98016.10
2019-06-08T14:59:04.420Z,98019.38
2019-06-08T15:01:37.992Z,98020.30
2019-06-08T15:04:09.248Z,98027.05
2019-06-08T15:06:43.131Z,98035.75
2019-06-08T15:09:14.263Z,98035.75
2019-06-08T15:11:47.932Z,98039.96
2019-06-08T15:14:19.439Z,98039.96
2019-06-08T15:16:51.105Z,98043.63
2019-06-08T15:19:22.621Z,98051.96
2019-06-08T15:21:54.154Z,98050.32
2019-06-08T15:24:29.256Z,98055.08
2019-06-08T15:26:59.083Z,98055.98
2019-06-08T15:29:32.351Z,98051.50
2019-06-08T15:32:03.981Z,98055.69
2019-06-08T15:34:38.083Z,98062.64
2019-06-08T15:37:09.467Z,98064.37
2019-06-08T15:39:41.349Z,98064.19
2019-06-08T15:42:13.243Z,98057.70
2019-06-08T15:44:44.957Z,98063.23
2019-06-08T15:47:17.880Z,98061.55
2019-06-08T15:49:50.424Z,98061.55
2019-06-08T15:52:22.391Z,98059.55
2019-06-08T15:54:54.532Z,98060.16
2019-06-08T15:57:28.066Z,98068.84
2019-06-08T15:59:59.286Z,98074.92
2019-06-08T16:02:31.682Z,98074.92
2019-06-08T16:05:04.624Z,98071.91
2019-06-08T16:07:36.726Z,98079.31
2019-06-08T16:10:09.819Z,98075.75
2019-06-08T16:12:41.480Z,98081.36
2019-06-08T16:15:13.483Z,98076.44
2019-06-08T16:17:45.117Z,98077.97
2019-06-08T16:20:16.795Z,98072.45
2019-06-08T16:22:52.431Z,98075.08
2019-06-08T16:25:21.845Z,98075.05
2019-06-08T16:27:53.710Z,98079.14
2019-06-08T16:30:25.344Z,98079.14
2019-06-08T16:32:57.190Z,98079.50
2019-06-08T16:35:31.514Z,98079.50
2019-06-08T16:38:03.174Z,98075.27
2019-06-08T16:40:55.829Z,98081.45
2019-06-08T16:43:27.424Z,98081.45
2019-06-08T16:46:01.882Z,98076.42
2019-06-08T16:48:34.364Z,98081.37
2019-06-08T16:51:06.413Z,98085.44
2019-06-08T16:53:38.179Z,98086.59
2019-06-08T16:56:09.702Z,98085.95
2019-06-08T16:58:42.366Z,98085.95
2019-06-08T17:01:17.217Z,98090.30
2019-06-08T17:03:48.585Z,98093.16
2019-06-08T17:06:20.185Z,98091.78
2019-06-08T17:08:51.669Z,98092.98
2019-06-08T17:11:23.288Z,98092.20
2019-06-08T17:13:54.770Z,98092.38
2019-06-08T17:16:26.373Z,98094.19
2019-06-08T17:18:57.972Z,98098.55
2019-06-08T17:21:30.126Z,98100.19
2019-06-08T17:24:02.078Z,98098.39
2019-06-08T17:26:34.657Z,98098.39
2019-06-08T17:29:06.602Z,98096.31
2019-06-08T17:31:39.223Z,98104.87
2019-06-08T17:34:10.882Z,98106.28
2019-06-08T17:36:42.774Z,98106.28
2019-06-08T17:39:15.539Z,98107.30
2019-06-08T17:41:47.335Z,98104.63
2019-06-08T17:44:19.448Z,98101.12
2019-06-08T17:46:51.159Z,98101.77
2019-06-08T17:49:22.736Z,98100.78
2019-06-08T17:51:54.425Z,98096.77
2019-06-08T17:54:25.962Z,98093.20
2019-06-08T17:56:58.486Z,98091.50
2019-06-08T17:59:30.262Z,98089.63
2019-06-08T18:02:01.881Z,98096.77
2019-06-08T18:04:33.538Z,98099.20
2019-06-08T18:07:07.060Z,98097.93
2019-06-08T18:09:39.253Z,98097.14
2019-06-08T18:12:14.694Z,98097.14
2019-06-08T18:14:47.951Z,98098.23
2019-06-08T18:17:19.641Z,98094.94
2019-06-08T18:19:51.385Z,98088.09
2019-06-08T18:22:23.006Z,98086.34
2019-06-08T18:24:54.309Z,98088.84
2019-06-08T18:27:27.722Z,98090.30
2019-06-08T18:29:59.107Z,98095.87
2019-06-08T18:32:30.524Z,98089.77
2019-06-08T18:35:02.049Z,98089.77
2019-06-08T18:37:34.789Z,98090.16
2019-06-08T18:40:08.713Z,98090.16
2019-06-08T18:42:42.580Z,98088.32
2019-06-08T18:45:33.403Z,98085.29
2019-06-08T18:48:07.015Z,98083.41
2019-06-08T18:50:40.661Z,98077.63
2019-06-08T18:53:11.819Z,98079.63
2019-06-08T18:55:49.497Z,98070.83
2019-06-08T18:58:24.743Z,98069.20
2019-06-08T19:00:54.111Z,98074.45
2019-06-08T19:03:27.879Z,98081.20
2019-06-08T19:05:59.841Z,98081.20
2019-06-08T19:08:31.844Z,98083.26
2019-06-08T19:11:03.382Z,98069.89
2019-06-08T19:13:37.758Z,98065.63
2019-06-08T19:16:08.691Z,98060.50
2019-06-08T19:18:43.714Z,98059.08
2019-06-08T19:21:14.029Z,98054.34
2019-06-08T19:23:48.625Z,98050.63
2019-06-08T19:26:18.742Z,98053.31
2019-06-08T19:28:53.918Z,98053.31
2019-06-08T19:31:24.089Z,98048.59
2019-06-08T19:33:57.903Z,98048.59
2019-06-08T19:36:28.953Z,98044.08
2019-06-08T19:39:00.527Z,98044.08
2019-06-08T19:41:32.624Z,98039.68
2019-06-08T19:44:04.162Z,98039.68
2019-06-08T19:46:35.635Z,98049.59
2019-06-08T19:49:08.002Z,98043.98
2019-06-08T19:51:41.363Z,98039.64
2019-06-08T19:54:12.999Z,98047.88
2019-06-08T19:56:47.736Z,98046.11
2019-06-08T19:59:18.348Z,98046.11
2019-06-08T20:01:54.992Z,98043.05
2019-06-08T20:04:23.171Z,98040.24
2019-06-08T20:06:58.007Z,98037.17
2019-06-08T20:09:28.447Z,98038.59
2019-06-08T20:12:00.670Z,98040.47
2019-06-08T20:14:33.175Z,98045.44
2019-06-08T20:17:04.747Z,98045.44
2019-06-08T20:19:37.364Z,98042.55
2019-06-08T20:22:09.879Z,98041.06
2019-06-08T20:24:42.458Z,98043.27
2019-06-08T20:27:14.338Z,98040.98
2019-06-08T20:29:50.650Z,98046.17
2019-06-08T20:32:22.917Z,98042.60
2019-06-08T20:34:57.033Z,98048.78
2019-06-08T20:37:28.377Z,98055.33
2019-06-08T20:40:10.205Z,98058.80
2019-06-08T20:42:33.743Z,98060.80
2019-06-08T20:45:05.422Z,98059.53
2019-06-08T20:47:39.154Z,98060.15
2019-06-08T20:50:10.776Z,98059.53
2019-06-08T20:52:42.877Z,98067.77
2019-06-08T20:55:14.251Z,98066.43
2019-06-08T20:57:47.738Z,98068.70
2019-06-08T21:00:19.189Z,98061.56
2019-06-08T21:02:52.005Z,98062.50
2019-06-08T21:05:27.592Z,98067.85
2019-06-08T21:07:59.770Z,98057.02
2019-06-08T21:10:31.539Z,98062.12
2019-06-08T21:13:02.909Z,98058.09
2019-06-08T21:15:34.328Z,98058.09
2019-06-08T21:18:07.853Z,98067.27
2019-06-08T21:20:39.108Z,98070.34
2019-06-08T21:23:10.531Z,98069.12
2019-06-08T21:25:42.229Z,98069.12
2019-06-08T21:28:13.492Z,98073.02
2019-06-08T21:30:46.623Z,98070.34
2019-06-08T21:33:18.509Z,98076.54
2019-06-08T21:35:52.853Z,98066.78
2019-06-08T21:38:24.380Z,98072.73
2019-06-08T21:41:00.278Z,98077.45
2019-06-08T21:43:29.586Z,98076.70
2019-06-08T21:46:01.220Z,98077.76
2019-06-08T21:48:32.743Z,98077.22
2019-06-08T21:51:04.893Z,98076.62
2019-06-08T21:53:38.228Z,98076.62
2019-06-08T21:56:09.703Z,98076.38
2019-06-08T21:58:41.263Z,98074.45
2019-06-08T22:01:13.596Z,98063.28
2019-06-08T22:03:47.058Z,98061.17
2019-06-08T22:06:18.115Z,98066.73
2019-06-08T22:08:50.045Z,98065.50
2019-06-08T22:11:24.596Z,98065.50
2019-06-08T22:13:58.953Z,98060.56
2019-06-08T22:16:29.710Z,98056.06
2019-06-08T22:19:03.235Z,98056.06
2019-06-08T22:21:37.550Z,98059.50
2019-06-08T22:24:08.161Z,98057.73
2019-06-08T22:26:39.673Z,98061.36
2019-06-08T22:29:11.515Z,98068.77
2019-06-08T22:31:43.246Z,98071.30
2019-06-08T22:34:17.337Z,98067.58
2019-06-08T22:36:48.054Z,98070.94
2019-06-08T22:39:19.640Z,98064.14
2019-06-08T22:41:51.400Z,98062.03
2019-06-08T22:44:23.260Z,98055.33
2019-06-08T22:46:56.051Z,98052.42
2019-06-08T22:49:28.618Z,98052.79
2019-06-08T22:52:01.403Z,98054.90
2019-06-08T22:54:33.756Z,98052.73
2019-06-08T22:57:07.778Z,98052.73
2019-06-08T22:59:39.108Z,98053.09
2019-06-08T23:02:10.918Z,98065.23
2019-06-08T23:04:42.314Z,98055.11
2019-06-08T23:07:26.566Z,98050.11
2019-06-08T23:09:48.127Z,98058.22
2019-06-08T23:12:19.657Z,98059.14
2019-06-08T23:14:51.219Z,98061.15
2019-06-08T23:17:22.792Z,98060.65
2019-06-08T23:19:55.010Z,98059.99
2019-06-08T23:22:27.416Z,98055.23
2019-06-08T23:25:01.088Z,98061.84
2019-06-08T23:27:32.809Z,98068.18
2019-06-08T23:30:06.071Z,98073.86
2019-06-08T23:32:38.767Z,98086.34
2019-06-08T23:35:11.946Z,98079.69
2019-06-08T23:37:44.146Z,98083.52
2019-06-08T23:40:17.951Z,98083.52
2019-06-08T23:42:49.450Z,98091.00
2019-06-08T23:45:20.963Z,98085.88
2019-06-08T23:47:52.835Z,98080.64
2019-06-08T23:50:27.104Z,98074.85
2019-06-08T23:52:59.492Z,98080.05
2019-06-08T23:55:31.799Z,98082.17
2019-06-08T23:58:03.208Z,98080.63
